createdAt,value
2022-10-25T00:00:46.679Z,99.13
2022-10-25T00:03:14.746Z,98.74
2022-10-25T00:05:43.278Z,98.06
2022-10-25T00:08:12.773Z,98.77
2022-10-25T00:10:40.972Z,100.00
2022-10-25T00:13:09.092Z,100.00
2022-10-25T00:15:37.147Z,100.00
2022-10-25T00:18:05.759Z,100.00
2022-10-25T00:20:33.827Z,100.00
2022-10-25T00:23:01.921Z,100.00
2022-10-25T00:25:31.630Z,100.00
2022-10-25T00:27:59.744Z,100.00
2022-10-25T00:30:27.823Z,100.00
2022-10-25T00:32:55.889Z,100.00
2022-10-25T00:35:24.361Z,100.00
2022-10-25T00:37:53.066Z,100.00
2022-10-25T00:40:21.145Z,100.00
2022-10-25T00:42:50.626Z,100.00
2022-10-25T00:45:24.316Z,100.00
2022-10-25T00:47:57.743Z,100.00
2022-10-25T00:50:41.278Z,100.00
2022-10-25T00:53:13.446Z,100.00
2022-10-25T00:55:45.726Z,100.00
2022-10-25T00:58:19.335Z,100.00
2022-10-25T01:00:47.738Z,100.00
2022-10-25T01:03:17.746Z,100.00
2022-10-25T01:05:47.068Z,100.00
2022-10-25T01:08:16.553Z,100.00
2022-10-25T01:10:45.017Z,100.00
2022-10-25T01:13:13.232Z,100.00
2022-10-25T01:16:01.906Z,100.00
2022-10-25T01:18:43.556Z,100.00
2022-10-25T01:21:37.276Z,100.00
2022-10-25T01:24:28.171Z,100.00
2022-10-25T01:27:31.348Z,100.00
2022-10-25T01:30:17.128Z,100.00
2022-10-25T01:32:58.316Z,100.00
2022-10-25T01:35:30.937Z,100.00
2022-10-25T01:38:21.637Z,100.00
2022-10-25T01:40:58.409Z,100.00
2022-10-25T01:43:35.211Z,100.00
2022-10-25T01:46:13.713Z,100.00
2022-10-25T01:48:47.394Z,100.00
2022-10-25T01:51:18.048Z,100.00
2022-10-25T01:53:50.702Z,100.00
2022-10-25T01:56:25.792Z,100.00
2022-10-25T01:59:21.800Z,100.00
2022-10-25T02:02:02.488Z,100.00
2022-10-25T02:04:41.665Z,100.00
2022-10-25T02:07:14.499Z,100.00
2022-10-25T02:09:50.191Z,100.00
2022-10-25T02:12:26.264Z,100.00
2022-10-25T02:15:03.977Z,100.00
2022-10-25T02:17:35.476Z,100.00
2022-10-25T02:20:08.871Z,100.00
2022-10-25T02:22:40.365Z,100.00
2022-10-25T02:25:10.755Z,100.00
2022-10-25T02:27:41.248Z,100.00
2022-10-25T02:30:10.420Z,100.00
2022-10-25T02:32:38.695Z,100.00
2022-10-25T02:35:14.450Z,100.00
2022-10-25T02:37:43.026Z,100.00
2022-10-25T02:40:12.076Z,100.00
2022-10-25T02:42:40.274Z,100.00
2022-10-25T02:45:09.499Z,100.00
2022-10-25T02:47:37.820Z,100.00
2022-10-25T02:50:07.722Z,100.00
2022-10-25T02:52:35.913Z,100.00
2022-10-25T02:55:04.050Z,100.00
2022-10-25T02:57:34.805Z,100.00
2022-10-25T03:00:03.110Z,100.00
2022-10-25T03:02:31.297Z,100.00
2022-10-25T03:04:59.557Z,100.00
2022-10-25T03:07:29.101Z,100.00
2022-10-25T03:09:57.348Z,100.00
2022-10-25T03:12:25.688Z,100.00
2022-10-25T03:14:53.780Z,100.00
2022-10-25T03:17:22.239Z,100.00
2022-10-25T03:19:50.448Z,100.00
2022-10-25T03:22:18.505Z,100.00
2022-10-25T03:24:48.255Z,100.00
2022-10-25T03:27:17.942Z,100.00
2022-10-25T03:29:46.091Z,100.00
2022-10-25T03:32:14.295Z,100.00
2022-10-25T03:34:42.352Z,100.00
2022-10-25T03:37:10.500Z,100.00
2022-10-25T03:39:38.673Z,100.00
2022-10-25T03:42:08.218Z,100.00
2022-10-25T03:44:36.310Z,100.00
2022-10-25T03:47:04.657Z,100.00
2022-10-25T03:49:32.775Z,100.00
2022-10-25T03:52:02.823Z,100.00
2022-10-25T03:54:33.065Z,100.00
2022-10-25T03:57:01.236Z,100.00
2022-10-25T03:59:31.016Z,100.00
2022-10-25T04:01:59.149Z,100.00
2022-10-25T04:04:27.321Z,100.00
2022-10-25T04:06:55.462Z,100.00
2022-10-25T04:09:24.661Z,100.00
2022-10-25T04:11:52.720Z,100.00
2022-10-25T04:14:20.822Z,100.00
2022-10-25T04:16:50.457Z,100.00
2022-10-25T04:19:18.755Z,100.00
2022-10-25T04:21:46.873Z,100.00
2022-10-25T04:24:15.050Z,100.00
2022-10-25T04:26:43.152Z,100.00
2022-10-25T04:29:13.152Z,100.00
2022-10-25T04:31:41.238Z,100.00
2022-10-25T04:34:10.750Z,100.00
2022-10-25T04:36:39.979Z,100.00
2022-10-25T04:39:08.030Z,100.00
2022-10-25T04:41:36.329Z,100.00
2022-10-25T04:44:04.496Z,100.00
2022-10-25T04:46:33.728Z,100.00
2022-10-25T04:49:01.855Z,100.00
2022-10-25T04:51:31.389Z,100.00
2022-10-25T04:53:59.694Z,100.00
2022-10-25T04:56:30.136Z,100.00
2022-10-25T04:58:59.753Z,100.00
2022-10-25T05:01:28.492Z,100.00
2022-10-25T05:03:56.667Z,100.00
2022-10-25T05:06:27.730Z,100.00
2022-10-25T05:08:57.177Z,100.00
2022-10-25T05:11:26.658Z,100.00
2022-10-25T05:13:54.808Z,100.00
2022-10-25T05:16:25.876Z,100.00
2022-10-25T05:18:55.959Z,100.00
2022-10-25T05:24:02.596Z,100.00
2022-10-25T05:26:32.359Z,100.00
2022-10-25T05:29:00.995Z,100.00
2022-10-25T05:31:30.782Z,100.00
2022-10-25T05:34:01.064Z,100.00
2022-10-25T05:36:29.766Z,100.00
2022-10-25T05:39:01.873Z,100.00
2022-10-25T05:41:33.180Z,100.00
2022-10-25T05:44:04.753Z,100.00
2022-10-25T05:46:33.541Z,100.00
2022-10-25T05:49:02.040Z,100.00
2022-10-25T05:51:36.317Z,100.00
2022-10-25T05:54:08.238Z,100.00
2022-10-25T05:56:36.858Z,100.00
2022-10-25T05:59:08.841Z,100.00
2022-10-25T06:01:38.469Z,100.00
2022-10-25T06:04:07.276Z,100.00
2022-10-25T06:06:36.258Z,100.00
2022-10-25T06:09:06.774Z,100.00
2022-10-25T06:11:35.268Z,100.00
2022-10-25T06:14:03.940Z,100.00
2022-10-25T06:16:32.544Z,100.00
2022-10-25T06:19:00.668Z,100.00
2022-10-25T06:21:30.576Z,100.00
2022-10-25T06:24:00.284Z,100.00
2022-10-25T06:26:31.350Z,100.00
2022-10-25T06:29:01.653Z,99.98
2022-10-25T06:31:30.685Z,97.43
2022-10-25T06:34:00.872Z,96.64
2022-10-25T06:36:30.588Z,95.39
2022-10-25T06:39:05.155Z,92.85
2022-10-25T06:41:37.957Z,90.27
2022-10-25T06:44:07.582Z,88.13
2022-10-25T06:47:11.508Z,86.82
2022-10-25T06:49:26.271Z,83.21
2022-10-25T06:51:54.372Z,83.50
2022-10-25T06:54:22.564Z,84.61
2022-10-25T06:56:52.094Z,84.52
2022-10-25T06:59:20.687Z,83.75
2022-10-25T07:01:50.197Z,84.34
2022-10-25T07:04:18.458Z,85.04
2022-10-25T07:06:49.969Z,84.46
2022-10-25T07:09:20.937Z,83.26
2022-10-25T07:11:49.002Z,81.02
2022-10-25T07:14:18.747Z,79.64
2022-10-25T07:16:46.928Z,79.08
2022-10-25T07:19:15.018Z,78.71
2022-10-25T07:21:43.114Z,77.74
2022-10-25T07:24:11.929Z,77.69
2022-10-25T07:26:40.462Z,76.43
2022-10-25T07:29:08.825Z,76.80
2022-10-25T07:31:41.527Z,77.80
2022-10-25T07:34:12.013Z,77.89
2022-10-25T07:36:40.345Z,77.68
2022-10-25T07:39:08.687Z,78.37
2022-10-25T07:41:36.991Z,77.22
2022-10-25T07:44:05.280Z,77.40
2022-10-25T07:46:33.354Z,78.12
2022-10-25T07:49:03.035Z,77.58
2022-10-25T07:51:31.303Z,78.22
2022-10-25T07:53:59.494Z,77.83
2022-10-25T07:56:27.640Z,77.39
2022-10-25T07:58:55.668Z,76.83
2022-10-25T08:01:26.174Z,76.79
2022-10-25T08:03:55.510Z,76.03
2022-10-25T08:06:26.355Z,75.36
2022-10-25T08:08:55.066Z,73.80
2022-10-25T08:11:23.222Z,74.00
2022-10-25T08:13:52.015Z,74.40
2022-10-25T08:16:20.142Z,73.11
2022-10-25T08:18:48.384Z,72.79
2022-10-25T08:21:16.575Z,72.63
2022-10-25T08:23:46.330Z,73.64
2022-10-25T08:26:14.625Z,73.45
2022-10-25T08:28:42.677Z,73.47
2022-10-25T08:31:10.914Z,72.77
2022-10-25T08:33:39.458Z,72.11
2022-10-25T08:36:08.221Z,72.58
2022-10-25T08:38:36.269Z,72.98
2022-10-25T08:41:12.032Z,72.11
2022-10-25T08:44:20.045Z,70.23
2022-10-25T08:46:55.874Z,69.73
2022-10-25T08:49:29.339Z,69.47
2022-10-25T08:52:00.568Z,69.14
2022-10-25T08:54:30.980Z,67.99
2022-10-25T08:57:16.831Z,66.66
2022-10-25T08:59:49.767Z,66.00
2022-10-25T09:02:24.854Z,66.13
2022-10-25T09:04:53.172Z,66.93
2022-10-25T09:07:46.811Z,65.67
2022-10-25T09:10:26.586Z,65.82
2022-10-25T09:13:08.469Z,65.43
2022-10-25T09:15:52.472Z,64.35
2022-10-25T09:18:27.068Z,64.28
2022-10-25T09:20:55.659Z,64.54
2022-10-25T09:23:30.461Z,61.97
2022-10-25T09:26:05.092Z,61.43
2022-10-25T09:28:52.445Z,60.99
2022-10-25T09:31:24.514Z,60.39
2022-10-25T09:34:04.053Z,59.65
2022-10-25T09:36:39.279Z,58.93
2022-10-25T09:39:18.277Z,59.96
2022-10-25T09:41:51.001Z,59.77
2022-10-25T09:44:32.103Z,60.72
2022-10-25T09:47:05.785Z,59.42
2022-10-25T09:49:42.029Z,59.85
2022-10-25T09:52:19.022Z,61.18
2022-10-25T09:54:52.641Z,61.28
2022-10-25T09:57:20.903Z,61.90
2022-10-25T09:59:52.867Z,62.87
2022-10-25T10:02:25.629Z,63.02
2022-10-25T10:04:55.094Z,63.36
2022-10-25T10:07:29.318Z,63.77
2022-10-25T10:10:01.499Z,64.54
2022-10-25T10:12:36.088Z,65.37
2022-10-25T10:15:14.513Z,65.29
2022-10-25T10:17:42.766Z,62.95
2022-10-25T10:20:15.782Z,64.55
2022-10-25T10:22:52.130Z,65.56
2022-10-25T10:25:23.809Z,66.71
2022-10-25T10:27:54.591Z,68.53
2022-10-25T10:30:28.892Z,69.38
2022-10-25T10:33:00.647Z,69.80
2022-10-25T10:35:34.604Z,69.96
2022-10-25T10:38:21.833Z,70.16
2022-10-25T10:40:51.715Z,69.98
2022-10-25T10:43:31.866Z,69.32
2022-10-25T10:46:06.011Z,68.80
2022-10-25T10:48:42.010Z,70.49
2022-10-25T10:51:38.851Z,74.22
2022-10-25T10:54:23.642Z,73.86
2022-10-25T10:57:00.892Z,74.13
2022-10-25T10:59:41.031Z,73.42
2022-10-25T11:02:36.867Z,73.74
2022-10-25T11:05:20.619Z,74.79
2022-10-25T11:07:56.884Z,74.57
2022-10-25T11:10:28.750Z,75.08
2022-10-25T11:13:11.563Z,74.23
2022-10-25T11:16:04.267Z,74.53
2022-10-25T11:18:47.461Z,72.84
2022-10-25T11:21:29.889Z,72.00
2022-10-25T11:24:09.536Z,69.20
2022-10-25T11:26:52.180Z,69.71
2022-10-25T11:29:33.003Z,66.46
2022-10-25T11:32:11.960Z,67.54
2022-10-25T11:34:50.300Z,67.01
2022-10-25T11:37:22.549Z,67.16
2022-10-25T11:40:04.109Z,65.78
2022-10-25T11:42:57.476Z,64.55
2022-10-25T11:45:36.648Z,63.97
2022-10-25T11:48:42.606Z,64.04
2022-10-25T11:51:25.327Z,64.10
2022-10-25T11:54:20.585Z,64.25
2022-10-25T11:57:01.515Z,64.32
2022-10-25T11:59:44.806Z,65.50
2022-10-25T12:02:34.897Z,66.26
2022-10-25T12:05:18.126Z,66.26
2022-10-25T12:07:48.920Z,66.89
2022-10-25T12:10:29.327Z,67.16
2022-10-25T12:13:02.591Z,67.12
2022-10-25T12:15:38.104Z,67.22
2022-10-25T12:18:07.863Z,67.59
2022-10-25T12:20:38.011Z,68.06
2022-10-25T12:23:10.804Z,68.29
2022-10-25T12:25:45.823Z,68.50
2022-10-25T12:28:23.720Z,68.76
2022-10-25T12:30:58.228Z,68.86
2022-10-25T12:33:35.908Z,69.30
2022-10-25T12:36:08.530Z,69.44
2022-10-25T12:38:38.768Z,70.16
2022-10-25T12:41:17.013Z,70.45
2022-10-25T12:43:54.287Z,70.87
2022-10-25T12:46:44.191Z,71.27
2022-10-25T12:49:42.883Z,71.09
2022-10-25T12:52:25.456Z,71.21
2022-10-25T12:55:30.708Z,71.33
2022-10-25T12:58:12.928Z,71.73
2022-10-25T13:00:47.746Z,71.60
2022-10-25T13:03:37.779Z,72.01
2022-10-25T13:06:26.643Z,72.38
2022-10-25T13:08:56.830Z,72.92
2022-10-25T13:11:34.962Z,73.13
2022-10-25T13:14:05.587Z,73.10
2022-10-25T13:16:36.410Z,72.59
2022-10-25T13:19:53.450Z,73.31
2022-10-25T13:22:37.495Z,74.20
2022-10-25T13:25:19.651Z,73.75
2022-10-25T13:28:31.535Z,74.07
2022-10-25T13:31:47.065Z,72.93
2022-10-25T13:34:36.689Z,73.55
2022-10-25T13:37:07.042Z,73.81
2022-10-25T13:39:39.904Z,74.48
2022-10-25T13:42:23.385Z,73.85
2022-10-25T13:44:56.867Z,74.21
2022-10-25T13:47:37.072Z,74.68
2022-10-25T13:50:20.147Z,74.95
2022-10-25T13:53:02.643Z,75.74
2022-10-25T13:55:36.729Z,76.22
2022-10-25T13:58:42.089Z,76.45
2022-10-25T14:01:55.838Z,77.33
2022-10-25T14:04:36.240Z,77.70
2022-10-25T14:07:41.729Z,77.88
2022-10-25T14:10:26.869Z,78.81
2022-10-25T14:13:08.390Z,79.42
2022-10-25T14:15:46.825Z,80.15
2022-10-25T14:18:20.668Z,80.83
2022-10-25T14:20:50.536Z,81.65
2022-10-25T14:23:23.236Z,82.81
2022-10-25T14:25:56.781Z,82.39
2022-10-25T14:28:26.882Z,82.50
2022-10-25T14:30:56.835Z,83.47
2022-10-25T14:33:27.716Z,83.81
2022-10-25T14:35:58.975Z,84.98
2022-10-25T14:38:28.723Z,85.50
2022-10-25T14:41:00.158Z,86.37
2022-10-25T14:43:30.938Z,86.71
2022-10-25T14:46:12.656Z,87.30
2022-10-25T14:48:41.776Z,88.08
2022-10-25T14:51:15.015Z,89.04
2022-10-25T14:53:54.929Z,89.66
2022-10-25T14:56:29.035Z,91.21
2022-10-25T14:58:58.029Z,91.39
2022-10-25T15:01:27.018Z,91.75
2022-10-25T15:03:58.400Z,92.15
2022-10-25T15:06:29.522Z,92.42
2022-10-25T15:09:29.135Z,93.03
2022-10-25T15:12:07.983Z,93.74
2022-10-25T15:14:37.008Z,93.91
2022-10-25T15:17:06.557Z,94.50
2022-10-25T15:19:54.723Z,94.70
2022-10-25T15:22:28.405Z,94.74
2022-10-25T15:24:57.819Z,94.72
2022-10-25T15:27:32.942Z,94.59
2022-10-25T15:30:01.046Z,94.78
2022-10-25T15:32:29.192Z,95.01
2022-10-25T15:34:59.934Z,94.97
2022-10-25T15:37:29.777Z,95.15
2022-10-25T15:39:58.715Z,95.76
2022-10-25T15:42:28.577Z,96.05
2022-10-25T15:44:56.655Z,96.19
2022-10-25T15:47:33.734Z,96.23
2022-10-25T15:50:04.591Z,96.50
2022-10-25T15:52:32.755Z,96.66
2022-10-25T15:55:00.898Z,97.08
2022-10-25T15:57:30.791Z,97.53
2022-10-25T16:00:00.279Z,97.82
2022-10-25T16:02:28.738Z,98.07
2022-10-25T16:04:57.066Z,98.15
2022-10-25T16:07:25.407Z,97.77
2022-10-25T16:09:53.538Z,97.73
2022-10-25T16:12:25.944Z,97.60
2022-10-25T16:14:55.712Z,95.86
2022-10-25T16:17:23.798Z,95.45
2022-10-25T16:19:51.933Z,95.54
2022-10-25T16:22:20.125Z,95.73
2022-10-25T16:24:48.382Z,95.89
2022-10-25T16:27:16.662Z,94.54
2022-10-25T16:29:44.780Z,94.66
2022-10-25T16:32:14.343Z,93.86
2022-10-25T16:34:46.103Z,93.49
2022-10-25T16:37:14.402Z,92.79
2022-10-25T16:39:42.603Z,93.43
2022-10-25T16:42:29.320Z,94.57
2022-10-25T16:44:57.888Z,97.91
2022-10-25T16:47:28.083Z,97.83
2022-10-25T16:49:56.346Z,98.22
2022-10-25T16:52:24.584Z,98.38
2022-10-25T16:54:53.044Z,100.00
2022-10-25T16:57:21.242Z,100.00
2022-10-25T16:59:50.689Z,100.00
2022-10-25T17:02:20.532Z,100.00
2022-10-25T17:04:50.484Z,100.00
2022-10-25T17:07:19.269Z,95.98
2022-10-25T17:09:47.338Z,93.18
2022-10-25T17:12:15.449Z,91.10
2022-10-25T17:14:43.628Z,92.92
2022-10-25T17:17:12.049Z,93.29
2022-10-25T17:19:40.143Z,93.69
2022-10-25T17:22:10.189Z,94.09
2022-10-25T17:24:38.437Z,93.75
2022-10-25T17:27:08.243Z,93.60
2022-10-25T17:29:36.324Z,92.13
2022-10-25T17:32:04.467Z,92.59
2022-10-25T17:34:32.695Z,92.38
2022-10-25T17:37:02.331Z,91.41
2022-10-25T17:39:32.041Z,89.82
2022-10-25T17:42:00.159Z,89.13
2022-10-25T17:44:28.471Z,88.69
2022-10-25T17:46:58.529Z,88.58
2022-10-25T17:49:29.217Z,88.88
2022-10-25T17:51:57.346Z,89.94
2022-10-25T17:54:25.400Z,89.96
2022-10-25T17:56:58.562Z,90.18
2022-10-25T17:59:27.829Z,90.42
2022-10-25T18:01:56.163Z,90.39
2022-10-25T18:04:25.103Z,90.83
2022-10-25T18:06:53.230Z,91.30
2022-10-25T18:09:22.935Z,91.26
2022-10-25T18:11:51.082Z,91.19
2022-10-25T18:14:20.816Z,91.67
2022-10-25T18:16:48.899Z,92.66
2022-10-25T18:19:17.222Z,92.90
2022-10-25T18:21:45.296Z,95.95
2022-10-25T18:24:14.845Z,96.11
2022-10-25T18:26:43.007Z,100.00
2022-10-25T18:29:11.156Z,100.00
2022-10-25T18:31:40.647Z,99.84
2022-10-25T18:34:08.737Z,98.17
2022-10-25T18:36:36.917Z,94.81
2022-10-25T18:39:05.507Z,92.73
2022-10-25T18:41:35.559Z,89.37
2022-10-25T18:44:03.922Z,85.51
2022-10-25T18:46:32.905Z,83.63
2022-10-25T18:49:02.637Z,82.57
2022-10-25T18:51:31.928Z,81.63
2022-10-25T18:54:01.893Z,80.24
2022-10-25T18:56:31.661Z,79.64
2022-10-25T18:59:00.311Z,80.55
2022-10-25T19:01:32.772Z,81.23
2022-10-25T19:04:05.374Z,81.61
2022-10-25T19:06:34.475Z,82.04
2022-10-25T19:09:03.998Z,82.12
2022-10-25T19:11:33.458Z,82.65
2022-10-25T19:14:03.243Z,82.51
2022-10-25T19:16:31.512Z,82.10
2022-10-25T19:19:04.647Z,82.34
2022-10-25T19:21:32.922Z,81.79
2022-10-25T19:24:01.152Z,80.92
2022-10-25T19:26:29.357Z,80.15
2022-10-25T19:28:58.765Z,79.87
2022-10-25T19:31:28.028Z,80.26
2022-10-25T19:34:00.681Z,80.29
2022-10-25T19:36:30.968Z,79.13
2022-10-25T19:38:59.498Z,77.49
2022-10-25T19:41:27.716Z,76.83
2022-10-25T19:43:57.318Z,75.15
2022-10-25T19:46:26.265Z,72.52
2022-10-25T19:48:56.313Z,70.91
2022-10-25T19:51:24.811Z,67.54
2022-10-25T19:53:54.315Z,62.65
2022-10-25T19:56:23.851Z,58.96
2022-10-25T19:58:52.304Z,57.41
2022-10-25T20:01:23.367Z,56.32
2022-10-25T20:03:54.661Z,55.02
2022-10-25T20:06:25.090Z,54.50
2022-10-25T20:08:56.158Z,53.65
2022-10-25T20:11:25.677Z,53.45
2022-10-25T20:13:58.347Z,52.37
2022-10-25T20:16:27.578Z,52.18
2022-10-25T20:18:55.869Z,51.47
2022-10-25T20:21:26.049Z,51.84
2022-10-25T20:23:57.839Z,51.13
2022-10-25T20:26:28.245Z,50.80
2022-10-25T20:28:58.416Z,50.98
2022-10-25T20:31:28.052Z,51.17
2022-10-25T20:33:56.505Z,50.84
2022-10-25T20:36:25.206Z,50.63
2022-10-25T20:38:53.509Z,50.31
2022-10-25T20:41:25.570Z,49.84
2022-10-25T20:43:55.693Z,49.75
2022-10-25T20:46:25.469Z,50.46
2022-10-25T20:48:53.892Z,50.35
2022-10-25T20:51:22.639Z,49.92
2022-10-25T20:53:50.911Z,50.38
2022-10-25T20:56:20.569Z,50.47
2022-10-25T20:58:50.802Z,50.18
2022-10-25T21:01:19.290Z,50.33
2022-10-25T21:03:47.480Z,50.70
2022-10-25T21:06:15.579Z,51.16
2022-10-25T21:08:43.729Z,51.85
2022-10-25T21:11:13.785Z,51.43
2022-10-25T21:13:42.523Z,51.68
2022-10-25T21:16:14.062Z,51.55
2022-10-25T21:18:44.084Z,51.91
2022-10-25T21:21:19.089Z,51.77
2022-10-25T21:23:48.218Z,51.54
2022-10-25T21:26:16.654Z,51.87
2022-10-25T21:28:44.847Z,51.98
2022-10-25T21:31:17.135Z,52.23
2022-10-25T21:33:49.967Z,52.94
2022-10-25T21:36:20.942Z,52.66
2022-10-25T21:38:49.243Z,53.18
2022-10-25T21:41:20.684Z,53.33
2022-10-25T21:43:50.707Z,53.35
2022-10-25T21:46:21.729Z,54.08
2022-10-25T21:48:51.493Z,54.78
2022-10-25T21:51:20.349Z,55.21
2022-10-25T21:53:49.120Z,55.50
2022-10-25T21:56:19.197Z,55.86
2022-10-25T21:58:49.041Z,56.30
2022-10-25T22:01:20.518Z,56.56
2022-10-25T22:03:48.884Z,57.20
2022-10-25T22:06:19.179Z,57.49
2022-10-25T22:08:48.511Z,58.13
2022-10-25T22:11:18.701Z,58.95
2022-10-25T22:13:47.944Z,59.46
2022-10-25T22:16:18.146Z,59.85
2022-10-25T22:18:53.788Z,60.25
2022-10-25T22:21:22.681Z,60.64
2022-10-25T22:23:51.753Z,60.97
2022-10-25T22:26:21.778Z,61.35
2022-10-25T22:28:53.440Z,61.93
2022-10-25T22:31:22.244Z,62.34
2022-10-25T22:33:56.040Z,62.54
2022-10-25T22:36:26.058Z,63.30
2022-10-25T22:38:54.440Z,63.58
2022-10-25T22:41:24.781Z,63.83
2022-10-25T22:43:53.303Z,64.27
2022-10-25T22:46:25.251Z,64.60
2022-10-25T22:48:56.800Z,64.67
2022-10-25T22:51:26.501Z,64.59
2022-10-25T22:53:55.158Z,64.98
2022-10-25T22:56:24.510Z,65.19
2022-10-25T22:58:54.237Z,65.43
2022-10-25T23:01:24.833Z,64.96
2022-10-25T23:03:56.714Z,64.84
2022-10-25T23:06:27.261Z,64.68
2022-10-25T23:08:56.622Z,64.77
2022-10-25T23:11:26.996Z,65.21
2022-10-25T23:13:55.348Z,66.50
2022-10-25T23:16:23.730Z,66.83
2022-10-25T23:18:52.244Z,66.96
2022-10-25T23:21:23.779Z,66.94
2022-10-25T23:23:53.363Z,66.63
2022-10-25T23:26:26.168Z,66.16
2022-10-25T23:28:55.311Z,65.90
2022-10-25T23:31:24.363Z,65.97
2022-10-25T23:33:53.728Z,65.97
2022-10-25T23:36:25.460Z,65.86
2022-10-25T23:38:54.884Z,65.66
2022-10-25T23:41:24.062Z,65.53
2022-10-25T23:43:52.382Z,65.48
2022-10-25T23:46:20.815Z,65.25
2022-10-25T23:48:49.268Z,64.86
2022-10-25T23:51:19.379Z,64.34
2022-10-25T23:53:48.958Z,64.20
2022-10-25T23:56:17.432Z,64.26
2022-10-25T23:58:45.569Z,63.84
